Time;durP1;ratioP1;P1;durP2;ratioP2;P2;SDS_P1;SDS_P2;PMS_P1;PMS_P2;Temp;Humidity;BMP_temperature;BMP_pressure;BME280_temperature;BME280_humidity;BME280_pressure;Samples;Min_cycle;Max_cycle;Signal;HPM_P1;HPM_P2
2022/05/18 00:01:45;;;;;;;1.73;1.60;;;;;;;14.93;57.45;101967.66;5020124;28;20247;-53
2022/05/18 00:04:12;;;;;;;4.03;1.73;;;;;;;14.86;58.33;101981.75;5023225;28;20718;-52
2022/05/18 00:06:38;;;;;;;2.35;1.67;;;;;;;14.98;60.54;101981.75;5013968;28;20264;-52
2022/05/18 00:09:04;;;;;;;5.88;2.17;;;;;;;14.83;62.43;101979.09;5009783;28;20248;-52
2022/05/18 00:11:32;;;;;;;2.65;1.83;;;;;;;14.68;57.38;101982.59;5019291;28;20735;-52
2022/05/18 00:13:59;;;;;;;2.03;1.88;;;;;;;14.74;59.64;101977.28;5020455;28;20228;-51
2022/05/18 00:16:27;;;;;;;6.00;2.05;;;;;;;14.73;59.01;101981.72;5023193;28;20228;-52
2022/05/18 00:18:54;;;;;;;2.33;2.00;;;;;;;14.75;61.39;101985.25;5017888;28;20239;-52
2022/05/18 00:21:20;;;;;;;2.65;2.00;;;;;;;14.75;58.06;101995.81;5022429;28;20780;-52
2022/05/18 00:23:47;;;;;;;3.92;2.70;;;;;;;14.53;56.52;102001.91;5018617;28;20892;-53
2022/05/18 00:26:13;;;;;;;3.70;2.25;;;;;;;14.51;59.59;101993.13;5012298;28;20229;-52
2022/05/18 00:28:40;;;;;;;3.15;2.00;;;;;;;14.68;63.15;101994.03;5021007;28;20673;-53
2022/05/18 00:31:06;;;;;;;3.60;2.03;;;;;;;14.58;62.41;101999.31;5024617;28;20279;-51
2022/05/18 00:33:34;;;;;;;4.75;2.97;;;;;;;14.53;58.26;101997.53;5006872;28;20260;-53
2022/05/18 00:36:03;;;;;;;2.97;2.20;;;;;;;14.53;60.21;102007.19;5008816;28;20788;-53
2022/05/18 00:38:30;;;;;;;6.10;2.00;;;;;;;14.47;57.86;102015.97;5015952;28;20259;-52
2022/05/18 00:40:57;;;;;;;4.47;2.35;;;;;;;14.57;58.82;102027.50;5008659;28;20268;-53
2022/05/18 00:43:38;;;;;;;3.10;2.55;;;;;;;14.55;58.61;102034.53;5016270;28;20314;-52
2022/05/18 00:46:07;;;;;;;7.32;2.40;;;;;;;14.51;59.74;102027.47;5023608;28;20232;-52
2022/05/18 00:48:37;;;;;;;2.35;2.15;;;;;;;14.47;57.69;102025.66;5010010;28;20233;-52
2022/05/18 00:51:06;;;;;;;4.15;2.10;;;;;;;14.39;57.27;102024.72;5013419;28;20725;-53
2022/05/18 00:53:35;;;;;;;4.25;2.55;;;;;;;14.30;56.29;102028.25;5008335;28;20264;-53
2022/05/18 00:56:06;;;;;;;3.13;2.35;;;;;;;14.38;56.91;102036.19;5013237;28;20260;-54
2022/05/18 00:58:36;;;;;;;3.13;2.47;;;;;;;14.11;56.75;102040.47;5013300;28;20233;-52
2022/05/18 01:01:07;;;;;;;2.35;2.05;;;;;;;14.15;56.23;102050.19;5008311;28;20291;-52
2022/05/18 01:03:40;;;;;;;2.75;2.55;;;;;;;14.07;57.14;102051.88;5011718;28;20259;-52
2022/05/18 01:06:09;;;;;;;3.72;2.75;;;;;;;14.11;57.00;102058.97;5013273;28;20294;-52
2022/05/18 01:08:40;;;;;;;6.22;2.45;;;;;;;14.14;58.94;102063.38;5005178;28;20225;-51
2022/05/18 01:11:06;;;;;;;2.40;2.20;;;;;;;14.04;56.36;102057.16;5024644;28;20246;-52
2022/05/18 01:13:33;;;;;;;2.03;1.88;;;;;;;13.98;55.51;102062.41;5015359;28;20256;-52
2022/05/18 01:15:59;;;;;;;5.07;2.25;;;;;;;13.96;54.34;102059.75;5016553;28;20236;-52
2022/05/18 01:18:26;;;;;;;5.50;2.15;;;;;;;14.02;56.47;102064.19;5014538;28;20256;-52
2022/05/18 01:20:54;;;;;;;4.18;2.75;;;;;;;13.90;55.47;102074.66;5017699;28;20302;-53
2022/05/18 01:23:32;;;;;;;4.30;2.40;;;;;;;14.05;54.44;102069.50;5013998;28;20252;-52
2022/05/18 01:26:07;;;;;;;2.60;2.03;;;;;;;13.84;55.54;102075.50;5026915;28;20279;-57
2022/05/18 01:28:37;;;;;;;2.35;1.45;;;;;;;13.87;57.75;102075.53;5024472;28;20608;-52
2022/05/18 01:31:04;;;;;;;2.50;1.92;;;;;;;13.78;58.76;102073.69;5016638;28;20248;-52
2022/05/18 01:33:32;;;;;;;2.25;1.67;;;;;;;13.78;55.73;102083.38;5017870;28;20340;-52
2022/05/18 01:35:59;;;;;;;4.95;1.85;;;;;;;13.76;54.84;102088.66;5024957;28;20239;-53
2022/05/18 01:38:26;;;;;;;3.22;1.90;;;;;;;13.76;54.64;102093.94;5023582;28;20326;-51
2022/05/18 01:41:00;;;;;;;2.25;1.95;;;;;;;13.78;56.20;102094.81;5020029;28;20243;-51
2022/05/18 01:43:29;;;;;;;5.75;2.03;;;;;;;13.76;53.28;102093.94;5022808;28;20247;-52
2022/05/18 01:45:59;;;;;;;2.55;2.03;;;;;;;13.80;57.76;102095.72;5032164;28;20228;-53
2022/05/18 01:48:28;;;;;;;2.97;1.67;;;;;;;13.68;53.28;102100.91;5019904;28;20226;-52
2022/05/18 01:50:55;;;;;;;1.63;1.52;;;;;;;13.88;58.77;102097.53;5019507;28;20233;-52
2022/05/18 01:53:21;;;;;;;3.95;1.88;;;;;;;13.77;52.71;102090.41;5026584;28;20232;-51
2022/05/18 01:55:48;;;;;;;6.80;2.45;;;;;;;13.56;50.93;102095.53;5025290;28;21067;-52
2022/05/18 01:58:18;;;;;;;3.00;2.28;;;;;;;13.42;50.70;102102.44;5019352;28;20260;-52
2022/05/18 02:00:45;;;;;;;3.88;1.88;;;;;;;13.48;51.39;102097.19;5023677;28;20244;-53
2022/05/18 02:03:14;;;;;;;4.78;1.73;;;;;;;13.59;55.67;102099.06;5025820;28;20762;-52
2022/05/18 02:05:43;;;;;;;3.47;1.50;;;;;;;13.42;51.15;102094.53;5025223;28;20849;-52
2022/05/18 02:08:10;;;;;;;4.40;1.60;;;;;;;13.55;55.07;102105.22;5025483;28;20266;-53
2022/05/18 02:10:37;;;;;;;4.70;2.30;;;;;;;13.60;53.45;102102.59;5024882;28;20842;-53
2022/05/18 02:13:04;;;;;;;2.25;1.98;;;;;;;13.64;51.96;102107.03;5019898;28;20316;-51
2022/05/18 02:15:31;;;;;;;3.45;1.58;;;;;;;13.40;48.43;102109.44;5025641;28;20225;-52
2022/05/18 02:18:00;;;;;;;2.22;2.00;;;;;;;13.49;53.08;102109.53;5030427;28;20247;-51
2022/05/18 02:20:30;;;;;;;2.55;1.38;;;;;;;13.46;50.94;102106.88;5016969;28;20232;-51
2022/05/18 02:22:56;;;;;;;5.22;1.48;;;;;;;13.45;48.55;102115.66;5025357;28;20760;-52
2022/05/18 02:25:23;;;;;;;4.18;1.42;;;;;;;13.48;51.55;102115.66;5025066;28;20644;-50
2022/05/18 02:27:51;;;;;;;3.67;1.67;;;;;;;13.55;50.04;102114.88;5026163;28;20701;-53
2022/05/18 02:30:18;;;;;;;1.83;1.60;;;;;;;13.40;49.87;102112.09;5021381;28;20315;-52
2022/05/18 02:32:48;;;;;;;5.20;1.70;;;;;;;13.52;52.39;102112.22;5016066;28;20225;-51
2022/05/18 02:35:17;;;;;;;4.13;1.50;;;;;;;13.42;46.95;102113.88;5018197;28;20288;-53
2022/05/18 02:37:47;;;;;;;3.05;1.52;;;;;;;13.40;47.28;102117.34;5017236;28;20233;-53
2022/05/18 02:40:15;;;;;;;2.45;1.45;;;;;;;13.35;48.01;102118.19;5020718;28;20327;-53
2022/05/18 02:42:41;;;;;;;3.05;1.10;;;;;;;13.42;48.99;102115.63;5015314;28;20613;-52
2022/05/18 02:45:09;;;;;;;3.28;1.42;;;;;;;13.42;48.17;102115.63;5010080;28;20584;-52
2022/05/18 02:47:36;;;;;;;1.88;1.02;;;;;;;13.28;47.36;102116.38;5027520;28;20318;-52
2022/05/18 02:50:02;;;;;;;3.95;1.20;;;;;;;13.31;46.98;102121.69;5017144;28;20275;-53
2022/05/18 02:52:28;;;;;;;2.28;1.40;;;;;;;13.24;48.08;102114.59;5029492;28;20232;-56
2022/05/18 02:57:42;;;;;;;3.20;1.50;;;;;;;13.19;46.96;102110.97;5017775;28;20619;-52
2022/05/18 03:00:09;;;;;;;1.95;1.52;;;;;;;12.98;45.60;102116.88;5022486;28;20260;-53
2022/05/18 03:02:36;;;;;;;6.00;1.52;;;;;;;13.16;46.39;102118.84;5018909;28;20579;-51
2022/05/18 03:05:02;;;;;;;3.35;1.20;;;;;;;12.97;47.58;102106.34;5025131;28;20290;-53
2022/05/18 03:07:28;;;;;;;3.78;1.55;;;;;;;13.05;48.78;102105.53;5016847;28;20248;-53
2022/05/18 03:09:56;;;;;;;1.17;1.08;;;;;;;12.86;46.50;102117.63;5016349;28;20279;-52
2022/05/18 03:12:24;;;;;;;2.83;1.67;;;;;;;12.92;46.09;102118.56;5012785;28;20323;-51
2022/05/18 03:14:50;;;;;;;1.58;1.13;;;;;;;12.85;45.98;102118.53;5019982;28;20267;-52
2022/05/18 03:17:17;;;;;;;5.28;1.10;;;;;;;13.04;47.87;102126.63;5024444;28;20232;-50
2022/05/18 03:19:43;;;;;;;0.93;0.93;;;;;;;12.87;47.70;102127.31;5024377;28;20283;-52
2022/05/18 03:24:53;;;;;;;1.23;1.00;;;;;;;12.90;45.16;102131.75;5024039;28;20259;-52
2022/05/18 03:27:21;;;;;;;4.22;1.35;;;;;;;12.95;47.50;102137.06;5023835;28;20273;-52
2022/05/18 03:29:47;;;;;;;3.60;1.67;;;;;;;13.03;50.01;102140.69;5022635;28;20229;-52
2022/05/18 03:32:13;;;;;;;0.73;0.73;;;;;;;13.05;46.70;102144.22;5009271;28;20244;-51
2022/05/18 03:34:40;;;;;;;2.78;1.15;;;;;;;12.98;46.29;102159.06;5021995;28;20228;-51
2022/05/18 03:37:06;;;;;;;3.53;1.42;;;;;;;13.10;48.98;102158.34;5016884;28;20225;-52
2022/05/18 03:39:32;;;;;;;1.73;1.42;;;;;;;12.94;42.67;102164.28;5020365;28;20229;-53
2022/05/18 03:41:59;;;;;;;1.63;0.93;;;;;;;12.87;48.06;102153.66;5016426;28;20235;-51
2022/05/18 03:44:27;;;;;;;3.00;1.70;;;;;;;13.00;47.25;102156.47;5017352;28;20224;-52
2022/05/18 03:46:56;;;;;;;2.05;1.10;;;;;;;12.83;44.79;102157.13;5023956;28;20737;-52
2022/05/18 03:49:24;;;;;;;1.55;1.15;;;;;;;12.86;47.10;102162.44;5022866;28;20348;-51
2022/05/18 03:51:51;;;;;;;1.60;1.50;;;;;;;12.64;44.62;102168.31;5018193;28;20237;-55
2022/05/18 03:54:19;;;;;;;2.30;1.20;;;;;;;12.88;46.49;102171.28;5024473;28;20235;-55
2022/05/18 03:56:46;;;;;;;1.63;1.45;;;;;;;12.86;45.67;102169.47;5026766;28;20227;-52
2022/05/18 03:59:12;;;;;;;1.65;1.23;;;;;;;12.79;47.62;102163.25;5028531;28;20233;-53
2022/05/18 04:01:41;;;;;;;2.40;0.95;;;;;;;12.74;43.37;102164.94;5017948;28;20231;-50
2022/05/18 04:04:08;;;;;;;2.05;1.00;;;;;;;12.87;48.07;102172.13;5015858;28;20290;-51
2022/05/18 04:06:34;;;;;;;1.90;1.20;;;;;;;12.65;44.31;102176.22;5024884;28;20770;-53
2022/05/18 04:09:01;;;;;;;2.03;1.48;;;;;;;12.81;50.71;102171.16;5023615;28;20240;-52
2022/05/18 04:11:27;;;;;;;1.98;1.52;;;;;;;12.75;46.33;102174.63;5020330;28;20245;-53
2022/05/18 04:13:55;;;;;;;2.72;1.30;;;;;;;12.84;45.54;102166.81;5018607;28;20574;-52
2022/05/18 04:16:21;;;;;;;1.42;1.20;;;;;;;12.91;50.03;102167.78;5024737;28;20769;-53
2022/05/18 04:18:49;;;;;;;2.92;1.40;;;;;;;12.77;47.64;102170.22;5016942;28;20645;-52
2022/05/18 04:21:15;;;;;;;3.53;1.48;;;;;;;12.62;46.45;102170.03;5016261;28;20236;-51
2022/05/18 04:23:42;;;;;;;1.45;1.35;;;;;;;13.00;49.52;102169.66;5021199;28;20434;-52
2022/05/18 04:26:09;;;;;;;1.70;1.20;;;;;;;13.07;48.30;102158.31;5017628;28;20788;-52
2022/05/18 04:28:36;;;;;;;1.15;1.05;;;;;;;12.96;45.09;102175.75;5009107;28;20228;-53
2022/05/18 04:31:02;;;;;;;1.90;1.30;;;;;;;13.01;47.57;102168.78;5020667;28;20809;-52
2022/05/18 04:33:29;;;;;;;1.77;1.30;;;;;;;13.02;44.60;102175.81;5017912;28;20708;-52
2022/05/18 04:35:57;;;;;;;1.50;1.30;;;;;;;12.95;45.79;102166.06;5025810;28;20600;-52
2022/05/18 04:38:24;;;;;;;2.53;1.05;;;;;;;12.78;43.61;102168.50;5016431;28;20228;-53
2022/05/18 04:40:50;;;;;;;2.90;1.50;;;;;;;12.77;45.07;102167.59;5026054;28;20247;-53
2022/05/18 04:43:18;;;;;;;1.67;1.30;;;;;;;12.80;44.88;102175.53;5029636;28;20232;-51
2022/05/18 04:45:45;;;;;;;1.30;1.20;;;;;;;13.01;47.29;102172.28;5025510;28;20681;-54
2022/05/18 04:48:15;;;;;;;8.15;1.50;;;;;;;12.85;44.09;102179.13;5022991;28;20232;-51
2022/05/18 04:50:41;;;;;;;1.35;1.25;;;;;;;12.93;44.45;102186.25;5021818;28;20240;-52
2022/05/18 04:53:09;;;;;;;4.45;1.95;;;;;;;12.81;47.43;102187.88;5020241;28;20246;-51
2022/05/18 04:55:35;;;;;;;4.40;1.45;;;;;;;12.93;44.18;102192.41;5022567;28;20703;-52
2022/05/18 04:58:02;;;;;;;4.53;1.73;;;;;;;13.11;49.62;102189.13;5024342;28;20751;-53
2022/05/18 05:00:29;;;;;;;3.20;1.25;;;;;;;12.99;44.54;102196.88;5026584;28;20338;-51
2022/05/18 05:02:57;;;;;;;1.42;1.33;;;;;;;13.10;43.20;102200.53;5012075;28;20240;-53
2022/05/18 05:05:25;;;;;;;1.80;1.35;;;;;;;13.11;43.11;102202.31;5022244;28;20237;-52
2022/05/18 05:07:51;;;;;;;3.17;1.17;;;;;;;13.18;43.81;102193.59;5027702;28;23334;-53
2022/05/18 05:10:19;;;;;;;1.55;1.45;;;;;;;13.23;45.55;102202.47;5020201;28;20236;-53
2022/05/18 05:12:46;;;;;;;4.18;1.52;;;;;;;13.19;45.11;102199.75;5021854;28;20237;-51
2022/05/18 05:15:13;;;;;;;5.30;1.67;;;;;;;13.13;43.21;102200.56;5018550;28;20813;-53
2022/05/18 05:17:39;;;;;;;3.33;1.25;;;;;;;13.22;47.16;102197.16;5022046;28;20290;-52
2022/05/18 05:20:07;;;;;;;2.38;1.20;;;;;;;13.15;43.26;102204.09;5019190;28;20626;-52
2022/05/18 05:22:34;;;;;;;2.58;1.30;;;;;;;13.14;43.03;102211.13;5019852;28;20295;-52
2022/05/18 05:25:00;;;;;;;1.98;1.45;;;;;;;13.15;43.76;102212.00;5015659;28;20236;-52
2022/05/18 05:27:28;;;;;;;2.50;1.45;;;;;;;13.24;45.03;102211.28;5020245;28;20228;-51
2022/05/18 05:29:55;;;;;;;2.53;1.52;;;;;;;13.36;48.45;102209.66;5025789;28;20958;-53
2022/05/18 05:32:21;;;;;;;2.78;1.23;;;;;;;13.18;46.33;102216.44;5022136;28;20244;-53
2022/05/18 05:34:48;;;;;;;1.95;1.50;;;;;;;13.33;48.87;102217.53;5026167;28;20232;-53
2022/05/18 05:37:14;;;;;;;1.63;1.40;;;;;;;13.43;44.65;102207.09;5022233;28;20263;-53
2022/05/18 05:39:41;;;;;;;3.03;1.63;;;;;;;13.40;46.57;102210.56;5019443;28;20480;-53
2022/05/18 05:42:08;;;;;;;3.10;2.55;;;;;;;13.39;47.87;102202.66;5016178;28;20320;-52
2022/05/18 05:44:35;;;;;;;4.20;3.20;;;;;;;13.35;43.56;102199.97;5008036;28;20708;-50
2022/05/18 05:47:03;;;;;;;8.10;3.17;;;;;;;13.27;44.35;102209.56;5016726;28;20282;-55
2022/05/18 05:49:29;;;;;;;7.82;3.40;;;;;;;13.26;45.48;102207.78;5025461;28;20236;-51
2022/05/18 05:51:56;;;;;;;4.72;3.17;;;;;;;13.38;45.73;102212.34;5026027;28;20252;-51
2022/05/18 05:54:22;;;;;;;5.30;3.72;;;;;;;13.46;47.30;102207.13;5027322;28;20283;-52
2022/05/18 05:56:49;;;;;;;6.10;2.72;;;;;;;13.48;45.34;102213.28;5020612;28;20239;-52
2022/05/18 05:59:19;;;;;;;4.10;2.42;;;;;;;13.56;44.72;102216.91;5026273;28;20260;-53
2022/05/18 06:01:47;;;;;;;4.50;2.80;;;;;;;13.76;46.06;102207.44;5029611;28;20719;-53
2022/05/18 06:04:14;;;;;;;2.60;1.63;;;;;;;13.76;45.71;102212.72;5021296;28;20268;-52
2022/05/18 06:06:41;;;;;;;2.80;1.73;;;;;;;13.70;45.68;102217.94;5017620;28;20730;-54
2022/05/18 06:09:08;;;;;;;2.17;1.80;;;;;;;13.74;46.15;102211.81;5020526;28;20264;-52
2022/05/18 06:11:35;;;;;;;3.92;1.73;;;;;;;13.71;45.27;102211.78;5024407;28;20247;-52
2022/05/18 06:14:02;;;;;;;2.08;1.88;;;;;;;13.75;45.06;102221.50;5017865;28;20769;-51
2022/05/18 06:16:29;;;;;;;3.67;1.55;;;;;;;13.76;44.62;102220.66;5027303;28;20674;-51
2022/05/18 06:18:56;;;;;;;2.85;1.83;;;;;;;13.88;44.21;102224.28;5020399;28;20237;-52
2022/05/18 06:21:23;;;;;;;4.50;2.17;;;;;;;14.06;44.03;102219.16;5016542;28;20244;-52
2022/05/18 06:23:49;;;;;;;3.70;1.83;;;;;;;14.09;44.65;102219.16;5023453;28;20287;-52
2022/05/18 06:26:15;;;;;;;1.88;1.70;;;;;;;14.05;46.09;102220.03;5024756;28;20229;-52
2022/05/18 06:28:42;;;;;;;4.65;1.60;;;;;;;14.11;45.44;102228.00;5016695;28;20239;-53
2022/05/18 06:31:08;;;;;;;2.25;1.65;;;;;;;14.25;47.70;102218.44;5022537;28;20463;-53
2022/05/18 06:33:35;;;;;;;2.28;1.60;;;;;;;14.36;47.45;102217.63;5022315;28;20241;-53
2022/05/18 06:36:04;;;;;;;2.83;1.70;;;;;;;14.46;45.41;102224.72;5010072;28;20367;-51
2022/05/18 06:38:31;;;;;;;1.75;1.65;;;;;;;14.53;48.04;102226.56;5021789;28;20263;-53
2022/05/18 06:43:43;;;;;;;4.30;1.60;;;;;;;14.59;44.97;102226.59;5030666;28;20708;-53
2022/05/18 06:46:10;;;;;;;3.95;1.73;;;;;;;14.61;45.17;102231.94;5024164;28;20316;-52
2022/05/18 06:48:37;;;;;;;3.53;2.53;;;;;;;14.60;45.09;102238.97;5023528;28;20240;-51
2022/05/18 06:51:04;;;;;;;2.78;2.53;;;;;;;14.60;46.54;102243.34;5025121;28;20341;-52
2022/05/18 06:53:31;;;;;;;1.88;1.77;;;;;;;14.70;46.71;102235.47;5020999;28;20244;-53
2022/05/18 06:55:57;;;;;;;3.72;2.45;;;;;;;14.79;46.15;102246.13;5023813;28;20265;-52
2022/05/18 06:58:24;;;;;;;4.90;2.30;;;;;;;14.86;46.99;102246.16;5020985;28;20419;-52
2022/05/18 07:00:51;;;;;;;5.45;2.05;;;;;;;14.87;46.64;102247.94;5012605;28;20328;-55
2022/05/18 07:03:18;;;;;;;3.00;1.92;;;;;;;15.07;45.74;102242.75;5010898;28;20260;-54
2022/05/18 07:05:44;;;;;;;5.25;2.13;;;;;;;15.05;46.13;102242.72;5027220;28;20248;-53
2022/05/18 07:08:13;;;;;;;2.13;1.88;;;;;;;15.21;46.65;102241.94;5019412;28;20270;-52
2022/05/18 07:10:40;;;;;;;2.13;1.92;;;;;;;15.22;47.39;102241.03;5014004;28;20307;-51
2022/05/18 07:13:07;;;;;;;3.95;2.40;;;;;;;15.34;46.48;102244.59;5014730;28;20283;-53
2022/05/18 07:15:34;;;;;;;2.65;2.00;;;;;;;15.40;45.69;102239.34;5022590;28;20236;-53
2022/05/18 07:18:00;;;;;;;4.93;2.97;;;;;;;15.44;46.21;102236.72;5021457;28;20240;-52
2022/05/18 07:20:28;;;;;;;4.30;2.97;;;;;;;15.52;48.48;102242.03;5013368;28;20232;-52
2022/05/18 07:22:55;;;;;;;4.45;2.40;;;;;;;15.59;48.76;102242.94;5022347;28;20244;-52
2022/05/18 07:25:23;;;;;;;3.45;2.40;;;;;;;15.66;46.45;102244.75;5018707;28;21023;-53
2022/05/18 07:27:51;;;;;;;3.05;2.45;;;;;;;15.80;45.92;102248.31;5019593;28;20236;-52
2022/05/18 07:30:18;;;;;;;3.42;2.30;;;;;;;15.81;46.30;102246.53;5012161;28;20287;-53
2022/05/18 07:32:44;;;;;;;4.47;2.55;;;;;;;15.96;45.64;102246.56;5018931;28;21012;-52
2022/05/18 07:35:11;;;;;;;3.28;2.88;;;;;;;16.07;45.86;102252.75;5013728;28;20280;-54
2022/05/18 07:37:37;;;;;;;3.97;2.55;;;;;;;16.08;46.34;102248.34;5020013;28;20410;-52
2022/05/18 07:40:06;;;;;;;2.72;2.40;;;;;;;16.08;46.84;102245.69;5019936;28;20696;-53
2022/05/18 07:42:34;;;;;;;5.28;2.70;;;;;;;16.26;46.38;102244.81;5016770;28;20225;-54
2022/05/18 07:45:01;;;;;;;2.60;2.40;;;;;;;16.55;44.77;102253.63;5017076;28;20221;-52
2022/05/18 07:47:29;;;;;;;3.92;1.85;;;;;;;16.51;44.90;102246.56;5020925;28;20237;-53
2022/05/18 07:49:56;;;;;;;2.70;2.00;;;;;;;16.59;45.15;102244.75;5018575;28;20320;-52
2022/05/18 07:52:22;;;;;;;7.40;3.45;;;;;;;16.57;46.07;102245.69;5014668;28;20259;-52
2022/05/18 07:54:55;;;;;;;3.65;2.45;;;;;;;16.70;46.81;102240.31;5016907;28;20323;-52
2022/05/18 07:57:22;;;;;;;3.50;2.38;;;;;;;16.88;46.13;102235.88;5021111;28;20632;-53
2022/05/18 07:59:55;;;;;;;5.75;2.75;;;;;;;16.85;46.42;102238.56;5005237;28;20636;-53
2022/05/18 08:02:21;;;;;;;2.88;2.35;;;;;;;16.93;45.93;102242.06;5020364;28;20299;-52
2022/05/18 08:04:47;;;;;;;5.55;2.65;;;;;;;17.14;46.93;102239.34;5010486;28;20240;-51
2022/05/18 08:07:14;;;;;;;6.47;2.90;;;;;;;17.29;46.28;102242.81;5024428;28;20240;-51
2022/05/18 08:15:07;;;;;;;3.33;2.80;;;;;;;17.52;46.35;102232.97;5017789;28;20297;-57
2022/05/18 08:17:33;;;;;;;8.63;3.13;;;;;;;17.71;45.65;102241.69;5021098;28;20723;-51
2022/05/18 08:20:00;;;;;;;4.70;2.70;;;;;;;17.60;47.05;102238.22;5012331;28;20232;-52
2022/05/18 08:22:27;;;;;;;6.43;2.78;;;;;;;17.62;47.39;102237.34;5020177;28;20332;-53
2022/05/18 08:24:53;;;;;;;4.82;3.05;;;;;;;17.73;46.30;102233.72;5012290;28;20923;-52
2022/05/18 08:27:20;;;;;;;4.32;2.78;;;;;;;17.67;46.80;102236.41;5012398;28;20639;-53
2022/05/18 08:29:46;;;;;;;3.08;2.88;;;;;;;18.09;45.40;102233.47;5007030;28;20773;-54
2022/05/18 08:32:14;;;;;;;2.88;2.45;;;;;;;18.16;45.18;102229.00;5021739;28;20233;-50
2022/05/18 08:34:44;;;;;;;2.75;2.55;;;;;;;18.34;45.42;102227.94;5013130;28;20264;-52
2022/05/18 08:37:10;;;;;;;6.18;2.80;;;;;;;18.60;45.17;102230.34;5022729;28;20317;-54
2022/05/18 08:39:37;;;;;;;2.90;2.63;;;;;;;18.52;45.24;102227.75;5017873;28;20231;-52
2022/05/18 08:42:03;;;;;;;3.40;2.83;;;;;;;18.55;45.71;102227.72;5028170;28;20232;-54
2022/05/18 08:44:32;;;;;;;4.50;3.17;;;;;;;18.67;45.56;102223.16;5016497;28;20232;-51
2022/05/18 08:47:09;;;;;;;6.20;3.95;;;;;;;18.83;45.53;102225.69;5017667;28;20237;-52
2022/05/18 08:49:42;;;;;;;4.18;3.10;;;;;;;18.94;45.71;102214.91;5020065;28;20224;-52
2022/05/18 08:52:26;;;;;;;3.78;3.30;;;;;;;19.18;45.68;102210.19;5022911;28;20240;-52
2022/05/18 08:55:01;;;;;;;10.45;3.97;;;;;;;19.22;44.93;102214.56;5024363;28;20406;-53
2022/05/18 08:57:28;;;;;;;3.92;3.08;;;;;;;19.39;44.45;102217.00;5021065;28;20227;-52
2022/05/18 08:59:57;;;;;;;5.35;3.35;;;;;;;19.36;45.73;102206.41;5024636;28;20240;-52
2022/05/18 09:02:26;;;;;;;6.60;4.25;;;;;;;19.51;45.72;102206.16;5015206;28;20233;-52
2022/05/18 09:04:56;;;;;;;4.60;3.22;;;;;;;19.46;46.18;102214.22;5024828;28;20232;-52
2022/05/18 09:07:27;;;;;;;3.75;2.95;;;;;;;19.66;44.60;102213.97;5026104;28;20229;-55
2022/05/18 09:10:13;;;;;;;7.10;3.80;;;;;;;19.84;45.01;102212.81;5008659;28;20264;-52
2022/05/18 09:12:42;;;;;;;9.48;3.28;;;;;;;20.15;44.00;102212.31;5017086;28;20232;-53
2022/05/18 09:15:25;;;;;;;6.32;3.42;;;;;;;20.33;43.35;102211.09;5022554;28;20441;-53
2022/05/18 09:17:55;;;;;;;4.15;3.40;;;;;;;20.15;44.27;102204.31;4978822;28;20320;-53
2022/05/18 09:20:24;;;;;;;8.60;3.20;;;;;;;20.10;45.79;102203.50;4977016;28;20578;-52
2022/05/18 09:23:05;;;;;;;6.63;3.78;;;;;;;20.30;46.32;102209.38;4978307;28;20460;-53
2022/05/18 09:25:41;;;;;;;3.20;3.00;;;;;;;20.54;44.64;102201.88;4984298;28;20238;-55
2022/05/18 09:28:18;;;;;;;6.10;3.47;;;;;;;20.77;43.20;102196.94;4981620;28;20237;-52
2022/05/18 09:30:51;;;;;;;5.38;3.50;;;;;;;20.77;43.77;102207.63;4975455;28;20244;-52
2022/05/18 09:33:40;;;;;;;6.20;3.90;;;;;;;20.75;43.19;102201.44;4982388;28;20288;-53
2022/05/18 09:36:19;;;;;;;3.40;3.15;;;;;;;20.79;43.74;102197.78;4971117;28;20673;-54
2022/05/18 09:38:50;;;;;;;4.65;3.60;;;;;;;20.98;43.42;102203.63;4982670;28;20226;-53
2022/05/18 09:41:19;;;;;;;3.25;2.95;;;;;;;21.06;44.02;102203.47;4980260;28;20234;-52
2022/05/18 09:43:48;;;;;;;3.58;3.22;;;;;;;21.42;42.81;102194.69;4991594;28;20289;-53
2022/05/18 09:46:23;;;;;;;4.60;4.18;;;;;;;21.58;42.42;102188.97;4998744;28;20222;-55
2022/05/18 09:48:53;;;;;;;7.40;3.78;;;;;;;21.49;42.98;102194.56;4993578;28;20331;-55
2022/05/18 09:51:22;;;;;;;7.88;3.63;;;;;;;21.76;43.00;102193.00;4996364;28;20261;-52
2022/05/18 09:53:50;;;;;;;7.13;3.55;;;;;;;21.70;43.51;102194.03;5003536;28;20246;-52
2022/05/18 09:56:19;;;;;;;4.85;3.10;;;;;;;21.79;43.07;102195.59;5047681;28;20240;-52
2022/05/18 09:58:47;;;;;;;6.63;3.63;;;;;;;21.64;43.10;102194.19;5032402;28;20255;-53
2022/05/18 10:09:52;;;;;;;3.97;3.63;;;;;;;22.76;42.12;102183.25;5009301;28;20240;-53
2022/05/18 10:12:24;;;;;;;11.60;4.10;;;;;;;22.89;42.09;102183.78;5023943;28;20252;-52
2022/05/18 10:14:53;;;;;;;5.18;4.07;;;;;;;22.94;41.54;102176.50;5019539;28;20257;-54
2022/05/18 10:17:22;;;;;;;5.88;3.90;;;;;;;22.93;41.83;102172.09;5017241;28;20421;-52
2022/05/18 10:19:50;;;;;;;4.85;4.30;;;;;;;22.94;42.06;102176.50;5022051;28;20657;-52
2022/05/18 10:22:21;;;;;;;5.75;4.38;;;;;;;22.66;41.95;102165.69;5024791;28;20319;-53
2022/05/18 10:24:53;;;;;;;4.25;3.88;;;;;;;22.99;42.11;102163.84;5020605;28;20233;-53
2022/05/18 10:27:24;;;;;;;6.53;4.63;;;;;;;23.21;42.15;102162.28;5031494;28;21002;-52
2022/05/18 10:30:02;;;;;;;5.60;4.25;;;;;;;23.15;41.73;102158.91;5031311;28;20236;-51
2022/05/18 10:32:29;;;;;;;5.93;4.60;;;;;;;23.08;42.28;102160.91;5031347;28;20250;-53
2022/05/18 10:34:56;;;;;;;5.35;4.28;;;;;;;23.54;42.41;102164.81;5034573;28;20298;-52
2022/05/18 10:37:30;;;;;;;5.47;4.70;;;;;;;23.68;42.42;102162.59;5026481;28;20232;-53
2022/05/18 10:40:03;;;;;;;7.32;6.65;;;;;;;23.47;43.24;102171.28;5024879;28;20241;-54
2022/05/18 10:42:31;;;;;;;6.97;5.88;;;;;;;23.66;43.08;102159.06;5025343;28;20617;-52
2022/05/18 10:45:00;;;;;;;7.32;6.10;;;;;;;23.57;43.12;102168.28;5023734;28;20718;-51
2022/05/18 10:47:29;;;;;;;9.43;5.82;;;;;;;23.88;43.15;102172.66;5023998;28;21084;-52
2022/05/18 10:50:12;;;;;;;6.30;5.57;;;;;;;23.89;43.08;102166.34;5027968;28;20687;-52
2022/05/18 10:52:39;;;;;;;5.75;5.03;;;;;;;24.28;42.34;102156.03;5024531;28;20259;-53
2022/05/18 10:55:14;;;;;;;5.72;5.22;;;;;;;23.89;42.27;102162.81;5028359;28;20243;-58
2022/05/18 10:57:42;;;;;;;6.28;5.70;;;;;;;24.20;41.75;102157.25;5027979;28;20227;-54
2022/05/18 11:00:11;;;;;;;9.77;6.07;;;;;;;24.14;41.74;102169.06;5020911;28;20240;-56
2022/05/18 11:02:46;;;;;;;7.63;5.72;;;;;;;24.47;41.05;102155.44;5032172;28;20650;-53
2022/05/18 11:05:22;;;;;;;11.10;5.45;;;;;;;24.57;40.82;102151.47;5021714;28;20313;-51
2022/05/18 11:07:50;;;;;;;7.05;6.00;;;;;;;24.94;41.32;102150.06;5022057;28;20297;-54
2022/05/18 11:10:17;;;;;;;9.30;6.57;;;;;;;25.11;39.63;102147.63;5023617;28;20772;-52
2022/05/18 11:12:48;;;;;;;6.65;6.00;;;;;;;24.81;40.81;102130.84;5025668;28;20233;-52
2022/05/18 11:15:22;;;;;;;10.50;5.40;;;;;;;24.92;39.93;102143.88;5025999;28;20355;-52
2022/05/18 11:18:04;;;;;;;6.32;4.22;;;;;;;25.24;37.98;102137.28;5024154;28;20237;-53
2022/05/18 11:20:36;;;;;;;5.00;4.60;;;;;;;24.92;36.06;102135.81;5020801;28;20232;-53
2022/05/18 11:23:14;;;;;;;4.38;4.00;;;;;;;25.11;37.79;102125.25;5022427;28;20256;-52
2022/05/18 11:25:48;;;;;;;6.20;4.82;;;;;;;25.17;37.02;102123.22;5022245;28;20232;-53
2022/05/18 11:28:31;;;;;;;7.18;4.88;;;;;;;25.10;38.33;102126.19;5016643;28;20255;-55
2022/05/18 11:31:04;;;;;;;8.95;4.50;;;;;;;24.76;37.45;102127.47;5020544;28;20589;-52
2022/05/18 11:33:36;;;;;;;5.65;4.45;;;;;;;24.81;37.75;102122.78;5024364;28;20276;-54
2022/05/18 11:36:11;;;;;;;5.38;4.47;;;;;;;24.99;38.27;102113.13;5025332;28;20298;-52
2022/05/18 11:38:59;;;;;;;5.28;4.68;;;;;;;25.40;38.52;102116.00;5013567;28;20239;-53
2022/05/18 11:41:52;;;;;;;8.93;4.95;;;;;;;26.24;35.61;102104.34;5016371;28;21814;-52
2022/05/18 11:44:25;;;;;;;9.07;4.82;;;;;;;26.07;35.27;102106.91;4989836;28;20598;-56
2022/05/18 11:47:16;;;;;;;5.75;4.53;;;;;;;26.47;34.89;102097.97;5022719;28;20295;-51
2022/05/18 11:49:50;;;;;;;5.25;4.25;;;;;;;26.47;35.46;102094.41;5023706;28;20392;-53
2022/05/18 11:52:30;;;;;;;4.72;4.32;;;;;;;26.14;36.11;102090.41;5019070;28;20239;-52
2022/05/18 11:55:08;;;;;;;6.68;4.53;;;;;;;26.55;35.81;102093.09;5023090;28;20826;-52